CW2306 Weather Reports


Display with metric or nautical units.
time (UTC)temp
F
wind
direction
speed
MPH
gust
MPH
rain 1hr
in
rain 24hr
in
rain mn
in
humidity
%
barometer
mb
20220629214331 80 20 2.0 6.0 0.00 0.21 0.21 77 1013.6
20220629213347 80 59 1.0 5.0 0.00 0.21 0.21 78 1013.8
20220629212334 80 65 2.0 6.0 0.00 0.21 0.21 78 1014.0
20220629211327 81 44 2.0 6.0 0.00 0.21 0.21 78 1014.0
20220629210345 81 83 2.0 6.0 0.00 0.21 0.21 77 1014.3
20220629205337 81 88 2.0 6.0 0.00 0.21 0.21 76 1014.3
20220629204327 81 68 3.0 6.0 0.00 0.21 0.21 75 1014.3
20220629203345 81 126 3.0 7.0 0.00 0.21 0.21 74 1014.3
20220629202336 81 78 4.0 8.0 0.00 0.21 0.21 73 1014.2
20220629201333 82 88 5.0 7.0 0.00 0.21 0.21 71 1014.2
20220629200347 82 88 2.0 8.0 0.00 0.21 0.21 71 1014.4
20220629195335 81 76 4.0 7.0 0.00 0.21 0.21 72 1014.5
20220629193335 81 140 3.0 9.0 0.00 0.21 0.21 74 1014.8
20220629192332 81 143 4.0 10.0 0.00 0.21 0.21 72 1014.9
20220629191345 81 55 4.0 10.0 0.00 0.21 0.21 75 1014.9
20220629190337 83 58 2.0 7.0 0.00 0.21 0.21 73 1014.9
20220629185335 81 96 4.0 8.0 0.05 0.21 0.21 74 1014.9
20220629184331 80 80 4.0 8.0 0.06 0.21 0.21 76 1014.9
20220629183352 79 68 4.0 7.0 0.06 0.21 0.21 80 1014.9
20220629182340 79 140 1.0 2.0 0.06 0.21 0.21 80 1014.9
20220629181337 77 1 1.0 3.0 0.06 0.21 0.21 79 1014.9
20220629180331 79 333 2.0 7.0 0.06 0.21 0.21 77 1015.0
20220629175339 82 329 5.0 9.0 0.02 0.17 0.17 73 1015.0
20220629174341 78 127 4.0 8.0 0.01 0.15 0.15 81 1015.0
20220629173336 77 152 3.0 7.0 0.11 0.15 0.15 83 1015.1
20220629172338 79 48 1.0 5.0 0.15 0.15 0.15 83 1015.3
20220629171342 80 6 1.0 3.0 0.15 0.15 0.15 84 1015.3
20220629170350 79 340 2.0 7.0 0.15 0.15 0.15 83 1015.4
20220629165339 77 305 3.0 6.0 0.15 0.15 0.15 84 1015.6
20220629164340 77 274 3.0 8.0 0.14 0.14 0.14 82 1015.6
20220629163333 79 359 4.0 13.0 0.05 0.05 0.05 76 1015.8
20220629162333 85 353 5.0 14.0 0.00 0.00 0.00 66 1015.5
20220629161328 85 72 4.0 8.0 0.00 0.00 0.00 62 1015.5
20220629160346 82 89 6.0 11.0 0.00 0.00 0.00 62 1015.5
20220629155336 84 360 5.0 11.0 0.00 0.00 0.00 62 1015.4
20220629154338 81 14 4.0 12.0 0.00 0.00 0.00 62 1015.4
20220629153352 82 72 5.0 12.0 0.00 0.00 0.00 60 1015.5
20220629152335 81 88 7.0 13.0 0.00 0.00 0.00 62 1015.4
20220629151333 81 40 4.0 11.0 0.00 0.00 0.00 63 1015.4
20220629150332 79 80 5.0 10.0 0.00 0.00 0.00 62 1015.4
20220629145333 78 102 3.0 11.0 0.00 0.00 0.00 62 1015.2
20220629144328 78 38 4.0 8.0 0.00 0.00 0.00 63 1015.2
20220629143348 78 89 4.0 11.0 0.00 0.00 0.00 61 1015.2
20220629142339 78 97 6.0 9.0 0.00 0.00 0.00 61 1015.0
20220629141337 80 68 4.0 9.0 0.00 0.00 0.00 62 1015.1
20220629140335 79 17 3.0 12.0 0.00 0.00 0.00 63 1015.0
20220629135334 79 93 3.0 8.0 0.00 0.00 0.00 65 1015.0
20220629134342 81 82 2.0 8.0 0.00 0.00 0.00 67 1015.0
20220629133338 77 51 6.0 8.0 0.00 0.00 0.00 68 1014.9
20220629132339 81 56 2.0 7.0 0.00 0.00 0.00 67 1014.7
20220629131332 85 10 3.0 6.0 0.00 0.00 0.00 65 1014.8
20220629130326 79 78 3.0 7.0 0.00 0.00 0.00 63 1014.7
20220629125328 78 66 2.0 6.0 0.00 0.00 0.00 64 1014.5
20220629124329 78 55 1.0 7.0 0.00 0.00 0.00 64 1014.5
20220629123342 77 59 3.0 7.0 0.00 0.00 0.00 63 1014.4
20220629122331 78 79 3.0 6.0 0.00 0.00 0.00 65 1014.2
20220629121330 78 72 2.0 5.0 0.00 0.00 0.00 67 1014.2
20220629120335 77 85 1.0 7.0 0.00 0.00 0.00 68 1014.1
20220629115335 76 88 1.0 7.0 0.00 0.00 0.00 69 1014.1
20220629114343 77 72 2.0 6.0 0.00 0.00 0.00 71 1014.1
20220629113339 75 79 2.0 6.0 0.00 0.00 0.00 73 1014.0
20220629112336 80 75 3.0 6.0 0.00 0.00 0.00 75 1013.9
20220629111337 75 96 0.0 2.0 0.00 0.00 0.00 77 1013.9
20220629110350 74 62 1.0 3.0 0.00 0.00 0.00 79 1013.9
20220629105336 78 48 0.0 3.0 0.00 0.00 0.00 80 1013.8
20220629104336 78 51 0.0 2.0 0.00 0.00 0.00 80 1013.8
20220629103335 78 52 0.0 2.0 0.00 0.00 0.00 79 1013.6
20220629102331 79 64 0.0 3.0 0.00 0.00 0.00 79 1013.5
20220629101326 79 61 1.0 3.0 0.00 0.00 0.00 78 1013.5
20220629100326 79 68 0.0 2.0 0.00 0.00 0.00 78 1013.4
20220629095325 79 66 0.0 1.0 0.00 0.00 0.00 77 1013.5
20220629094326 79 66 0.0 0.0 0.00 0.00 0.00 77 1013.5
20220629093327 79 66 0.0 1.0 0.00 0.00 0.00 77 1013.3
20220629092343 79 86 0.0 3.0 0.00 0.00 0.00 77 1013.4
20220629091340 79 72 2.0 5.0 0.00 0.00 0.00 77 1013.4
20220629090335 80 78 1.0 5.0 0.00 0.00 0.00 76 1013.5
20220629085335 80 76 2.0 5.0 0.00 0.00 0.00 76 1013.4
20220629084328 80 82 1.0 5.0 0.00 0.00 0.00 76 1013.4
20220629083343 80 65 0.0 3.0 0.00 0.00 0.00 75 1013.4
20220629082336 80 88 2.0 3.0 0.00 0.00 0.00 75 1013.5
20220629081337 80 120 1.0 3.0 0.00 0.00 0.00 74 1013.5
20220629080335 80 128 1.0 6.0 0.00 0.00 0.00 74 1013.5
20220629075332 80 89 2.0 6.0 0.00 0.00 0.00 73 1013.6
20220629074333 80 119 2.0 6.0 0.00 0.00 0.00 74 1013.6
20220629073347 80 131 1.0 5.0 0.00 0.00 0.00 74 1013.5
20220629072338 80 127 2.0 5.0 0.00 0.00 0.00 74 1013.5
20220629071335 80 102 1.0 3.0 0.00 0.00 0.00 74 1013.5
20220629070348 80 103 1.0 6.0 0.00 0.00 0.00 74 1013.5
20220629065341 80 103 1.0 5.0 0.00 0.00 0.00 74 1013.5
20220629064338 80 133 2.0 3.0 0.00 0.00 0.00 74 1013.5
20220629063332 80 148 2.0 3.0 0.00 0.00 0.00 74 1013.6
20220629062329 81 92 1.0 5.0 0.00 0.00 0.00 73 1013.9
20220629061329 81 95 1.0 4.0 0.00 0.00 0.00 73 1013.9
20220629060347 81 121 3.0 7.0 0.00 0.00 0.00 72 1013.9
20220629055339 81 128 2.0 10.0 0.00 0.00 0.00 72 1013.9
20220629054337 81 120 2.0 7.0 0.00 0.00 0.00 71 1013.9
20220629053333 81 143 4.0 7.0 0.00 0.00 0.00 71 1014.0
20220629052328 81 110 3.0 7.0 0.00 0.00 0.00 71 1014.2
20220629051328 81 131 2.0 11.0 0.00 0.00 0.00 72 1014.2
20220629050346 81 89 2.0 7.0 0.00 0.00 0.00 73 1014.4
20220629045332 81 169 2.0 6.0 0.00 0.00 0.00 72 1014.4
20220629042340 81 144 3.0 7.0 0.00 0.00 0.00 70 1014.5
20220629041339 81 90 3.0 10.0 0.00 0.00 0.00 70 1014.5
20220629040332 81 120 1.0 8.0 0.00 0.00 0.00 71 1014.5
20220629035327 81 97 2.0 7.0 0.00 0.00 0.00 71 1014.4
20220629034329 81 114 3.0 10.0 0.00 0.00 0.00 71 1014.4
20220629033349 81 72 2.0 7.0 0.00 0.00 0.00 71 1014.2
20220629032335 82 110 4.0 10.0 0.00 0.00 0.00 71 1014.4
20220629031331 82 138 4.0 10.0 0.00 0.00 0.00 70 1014.4
20220629030329 82 92 3.0 12.0 0.00 0.00 0.00 71 1014.5
20220629025328 82 78 3.0 12.0 0.00 0.00 0.00 71 1014.4
20220629024342 82 102 4.0 10.0 0.00 0.00 0.00 71 1014.4
20220629023334 82 64 2.0 13.0 0.00 0.00 0.00 70 1014.3
20220629022335 82 112 3.0 8.0 0.00 0.00 0.00 71 1014.2
20220629021332 82 130 2.0 10.0 0.00 0.00 0.00 71 1014.2
20220629020329 82 134 5.0 10.0 0.00 0.00 0.00 71 1013.9
20220629015341 82 143 3.0 8.0 0.00 0.00 0.00 71 1013.9
20220629014343 82 93 2.0 8.0 0.00 0.00 0.00 70 1013.9
20220629013335 82 73 3.0 11.0 0.00 0.00 0.00 70 1013.8
20220629012338 82 165 3.0 11.0 0.00 0.00 0.00 70 1013.8
20220629011341 82 82 3.0 8.0 0.00 0.00 0.00 70 1013.8
20220629010352 82 137 5.0 11.0 0.00 0.00 0.00 70 1013.5
20220629005344 82 141 5.0 11.0 0.00 0.00 0.00 68 1013.3
20220629004341 82 110 3.0 11.0 0.00 0.00 0.00 67 1013.3
20220629003337 82 71 3.0 12.0 0.00 0.00 0.00 68 1013.3
20220629002332 82 144 4.0 13.0 0.00 0.00 0.00 68 1013.2
20220629001328 83 124 4.0 11.0 0.00 0.00 0.00 68 1013.2
20220629000326 83 134 4.0 13.0 0.00 0.00 0.00 67 1012.9
20220628235344 83 90 4.0 11.0 0.00 0.00 0.00 67 1012.9
20220628234345 83 121 5.0 11.0 0.00 0.00 0.00 67 1012.9
20220628233338 84 158 5.0 11.0 0.00 0.00 0.00 66 1012.8
20220628232330 84 75 4.0 12.0 0.00 0.00 0.00 64 1012.8
20220628231332 84 79 3.0 11.0 0.00 0.00 0.00 65 1012.8
20220628230329 85 80 5.0 11.0 0.00 0.00 0.00 63 1012.7
20220628225329 85 130 4.0 12.0 0.00 0.00 0.00 62 1012.6
20220628224333 85 120 4.0 10.0 0.00 0.00 0.00 62 1012.6
20220628223332 86 116 5.0 11.0 0.00 0.00 0.00 62 1012.4
20220628222329 86 136 6.0 12.0 0.00 0.00 0.00 62 1012.6
20220628221327 86 130 6.0 11.0 0.00 0.00 0.00 62 1012.6
20220628220326 86 62 5.0 11.0 0.00 0.00 0.00 60 1012.5
20220628215339 86 147 6.0 10.0 0.00 0.00 0.00 59 1012.6